Share

Mumbai, India

Chhatrapati Shivaji International (VABB) Elev 46 ft | 19.10 °N, 72.86 °E | Change Station

Current weather conditions updated 45 minutes ago

Smoke
Smoke
91 °F
Feels Like 97 °F
N
13
Wind Variable Wind from NW
Sunrise 6:17 AM
Sunset 6:57 PM
Moon Waning Gibbous

Tomorrow is forecast to be Cooler than today.

Pressure 29.71 in
Visibility 2.5 miles
Clouds Few 2500 ft
Heat Index 97 °F
Dew Point 70 °F
Humidity 49%
Rainfall 0.00 in
Snow Depth Not available.
UV 4 out of 16
Pollen Not available.
Air Quality Not available.
Flu Activity Not available.
METAR VABB 211110Z 32011KT 4000 FU FEW025 33/21 Q1006 NOSIG

More Conditions Fewer Conditions

Pressure 29.71 in
Visibility 2.5 miles
Clouds Few 2500 ft
Heat Index 97 °F
Dew Point 70 °F
Humidity 49%
Rainfall 0.00 in
Snow Depth Not available.
UV 4 out of 16
Pollen Not available.
Air Quality Not available.
Flu Activity Not available.
METAR VABB 211110Z 32011KT 4000 FU FEW025 33/21 Q1006 NOSIG

More Conditions Fewer Conditions

10-Day Weather Forecast

Almanac

Astronomy

Apr. 21, 2014 Rise Set
Actual Time 6:17 AM IST 6:57 PM IST
Civil Twilight 5:54 AM IST 7:20 PM IST
Nautical Twilight 5:28 AM IST 7:46 PM IST
Astronomical Twilight 5:01 AM IST 8:13 PM IST
Moon No Moon Rise 11:26 AM IST
Length of Visible Light 13h 25m
Length of Day
12h 40m
Tomorrow will be 1m 0s longer.
Waning Gibbous, 60% of the Moon is Illuminated
Today
Waning Gibbous
Apr 22
Last Quarter
Apr 29
New
May 6
First Quarter
May 14
Full

Yesterday's Extremes

Country Highs Country Lows

Community

  • Snowy Robin
    Snowy Robin
  • Sun Pillar and Geese
    Sun Pillar and Geese
  • Showers on the Way
    Showers on the Way
  • Easter Morning Fog
    Easter Morning Fog
  • Easter Dance
    Easter Dance

WunderPhotos

Upload Photos

1,703,595 photos uploaded!

Nearby

Snow Depth

Not available.

Coastal Water Temperatures

Place Temperature
No Stations Reporting

Earthquake Activity

City Distance Mag. Time & Date
No recent earthquake activity has been reported nearby.
Minimum magnitude displayed is 2.5.

Nearby Weather Stations

There are no personal weather stations in this area.

What do you think?

We're not finished. Please let us know what you like, what you don't like, and what you are still missing.